createdAt,value
2023-01-30T00:01:46.054Z,17.98
2023-01-30T00:04:16.110Z,21.77
2023-01-30T00:06:43.909Z,21.08
2023-01-30T00:09:17.545Z,19.95
2023-01-30T00:11:44.303Z,21.38
2023-01-30T00:14:10.989Z,20.60
2023-01-30T00:16:37.875Z,19.45
2023-01-30T00:19:04.726Z,20.67
2023-01-30T00:21:31.370Z,19.45
2023-01-30T00:23:59.948Z,20.10
2023-01-30T00:26:27.182Z,20.10
2023-01-30T00:28:53.928Z,20.05
2023-01-30T00:31:20.662Z,20.20
2023-01-30T00:33:47.393Z,17.98
2023-01-30T00:36:14.054Z,19.67
2023-01-30T00:38:40.787Z,19.15
2023-01-30T00:41:07.693Z,19.00
2023-01-30T00:43:52.890Z,15.45
2023-01-30T00:46:46.737Z,19.02
2023-01-30T00:49:13.592Z,15.43
2023-01-30T00:51:40.409Z,19.73
2023-01-30T00:54:07.343Z,18.33
2023-01-30T00:56:34.363Z,18.35
2023-01-30T00:59:01.397Z,18.05
2023-01-30T01:01:28.368Z,18.05
2023-01-30T01:03:55.061Z,18.30
2023-01-30T01:06:21.770Z,18.00
2023-01-30T01:08:49.126Z,18.58
2023-01-30T01:11:24.293Z,17.02
2023-01-30T01:13:55.932Z,16.23
2023-01-30T01:16:24.287Z,18.20
2023-01-30T01:18:51.433Z,17.40
2023-01-30T01:21:20.223Z,16.80
2023-01-30T01:23:53.026Z,16.65
2023-01-30T01:26:20.638Z,15.80
2023-01-30T01:28:49.026Z,15.02
2023-01-30T01:31:17.418Z,16.92
2023-01-30T01:33:44.226Z,15.35
2023-01-30T01:36:12.296Z,15.98
2023-01-30T01:38:42.811Z,16.33
2023-01-30T01:41:12.698Z,13.75
2023-01-30T01:44:01.889Z,15.45
2023-01-30T01:46:54.795Z,16.02
2023-01-30T01:49:25.942Z,15.02
2023-01-30T01:52:05.504Z,14.07
2023-01-30T01:54:42.548Z,16.52
2023-01-30T01:57:23.970Z,13.27
2023-01-30T01:59:56.896Z,15.68
2023-01-30T02:02:24.018Z,16.45
2023-01-30T02:05:05.005Z,14.63
2023-01-30T02:07:37.709Z,16.15
2023-01-30T02:10:06.965Z,15.55
2023-01-30T02:12:33.870Z,17.30
2023-01-30T02:15:01.427Z,14.77
2023-01-30T02:17:28.160Z,16.48
2023-01-30T02:20:09.819Z,12.98
2023-01-30T02:22:57.759Z,15.70
2023-01-30T02:25:36.653Z,16.30
2023-01-30T02:28:38.962Z,14.63
2023-01-30T02:31:22.781Z,15.60
2023-01-30T02:34:08.470Z,15.65
2023-01-30T02:36:41.442Z,16.23
2023-01-30T02:39:18.740Z,14.32
2023-01-30T02:42:03.861Z,13.45
2023-01-30T02:44:42.336Z,12.45
2023-01-30T02:47:25.647Z,14.77
2023-01-30T02:50:02.408Z,15.75
2023-01-30T02:52:30.553Z,13.85
2023-01-30T02:54:57.221Z,15.98
2023-01-30T02:57:25.324Z,13.68
2023-01-30T02:59:57.022Z,14.98
2023-01-30T03:02:50.709Z,14.63
2023-01-30T03:05:29.735Z,15.20
2023-01-30T03:08:24.705Z,14.20
2023-01-30T03:11:07.212Z,13.02
2023-01-30T03:14:06.829Z,13.27
2023-01-30T03:16:38.056Z,13.18
2023-01-30T03:19:07.153Z,13.55
2023-01-30T03:21:33.979Z,13.75
2023-01-30T03:24:00.717Z,13.30
2023-01-30T03:26:32.702Z,13.73
2023-01-30T03:31:27.149Z,11.75
2023-01-30T03:33:53.990Z,12.27
2023-01-30T03:36:21.120Z,11.75
2023-01-30T03:38:47.877Z,10.88
2023-01-30T03:41:14.621Z,11.00
2023-01-30T03:43:41.409Z,10.45
2023-01-30T03:46:08.101Z,10.65
2023-01-30T03:48:34.777Z,9.48
2023-01-30T03:51:02.153Z,8.68
2023-01-30T03:53:28.792Z,9.40
2023-01-30T03:55:55.454Z,8.50
2023-01-30T03:58:22.133Z,9.07
2023-01-30T04:00:48.875Z,8.63
2023-01-30T04:03:15.836Z,8.63
2023-01-30T04:05:43.768Z,8.02
2023-01-30T04:08:10.950Z,7.43
2023-01-30T04:10:37.566Z,7.68
2023-01-30T04:13:04.178Z,8.85
2023-01-30T04:15:30.834Z,8.30
2023-01-30T04:17:57.527Z,7.18
2023-01-30T04:20:24.818Z,7.82
2023-01-30T04:22:51.485Z,7.20
2023-01-30T04:25:19.275Z,7.15
2023-01-30T04:27:46.161Z,7.03
2023-01-30T04:30:12.943Z,6.65
2023-01-30T04:32:39.631Z,7.03
2023-01-30T04:35:06.645Z,5.63
2023-01-30T04:37:33.399Z,5.13
2023-01-30T04:40:00.105Z,4.78
2023-01-30T04:42:26.761Z,5.13
2023-01-30T04:44:53.406Z,3.95
2023-01-30T04:47:20.106Z,4.40
2023-01-30T04:49:46.822Z,4.78
2023-01-30T04:52:13.505Z,4.38
2023-01-30T04:54:40.187Z,4.82
2023-01-30T04:57:06.838Z,5.05
2023-01-30T04:59:33.580Z,4.90
2023-01-30T05:02:00.332Z,4.32
2023-01-30T05:04:27.143Z,4.50
2023-01-30T05:06:53.940Z,4.43
2023-01-30T05:09:20.660Z,3.95
2023-01-30T05:11:47.464Z,3.78
2023-01-30T05:14:14.297Z,4.13
2023-01-30T05:16:40.966Z,4.03
2023-01-30T05:19:07.694Z,3.85
2023-01-30T05:21:34.362Z,3.13
2023-01-30T05:24:01.010Z,3.25
2023-01-30T05:26:27.906Z,2.85
2023-01-30T05:28:56.694Z,1.95
2023-01-30T05:31:24.007Z,1.98
2023-01-30T05:33:52.429Z,1.58
2023-01-30T05:36:21.326Z,1.55
2023-01-30T05:38:48.219Z,1.30
2023-01-30T05:41:16.363Z,1.05
2023-01-30T05:43:43.487Z,0.80
2023-01-30T05:46:12.329Z,0.98
2023-01-30T05:48:39.401Z,1.10
2023-01-30T05:51:06.523Z,0.55
2023-01-30T05:53:37.297Z,0.93
2023-01-30T05:56:05.427Z,0.52
2023-01-30T05:58:33.276Z,0.75
2023-01-30T06:01:02.513Z,0.60
2023-01-30T06:03:29.520Z,0.52
2023-01-30T06:05:56.266Z,0.70
2023-01-30T06:08:23.899Z,0.85
2023-01-30T06:10:50.680Z,0.50
2023-01-30T06:13:17.469Z,0.70
2023-01-30T06:15:44.225Z,0.65
2023-01-30T06:18:11.042Z,0.82
2023-01-30T06:20:37.792Z,0.77
2023-01-30T06:23:04.435Z,1.02
2023-01-30T06:25:31.116Z,0.95
2023-01-30T06:27:57.732Z,0.63
2023-01-30T06:30:24.467Z,2.03
2023-01-30T06:32:51.737Z,1.35
2023-01-30T06:35:19.029Z,0.63
2023-01-30T06:37:46.273Z,1.60
2023-01-30T06:40:13.500Z,1.00
2023-01-30T06:42:45.204Z,1.33
2023-01-30T06:45:13.039Z,0.88
2023-01-30T06:47:54.537Z,1.27
2023-01-30T06:50:24.183Z,1.08
2023-01-30T06:52:51.930Z,1.30
2023-01-30T06:55:22.367Z,2.17
2023-01-30T06:57:49.651Z,1.15
2023-01-30T07:00:20.451Z,1.13
2023-01-30T07:02:47.481Z,1.00
2023-01-30T07:05:14.293Z,1.20
2023-01-30T07:07:40.997Z,1.17
2023-01-30T07:10:09.247Z,1.17
2023-01-30T07:12:36.794Z,1.05
2023-01-30T07:15:05.074Z,1.33
2023-01-30T07:17:32.238Z,1.40
2023-01-30T07:19:59.350Z,1.52
2023-01-30T07:22:26.109Z,1.25
2023-01-30T07:24:52.817Z,0.40
2023-01-30T07:27:19.494Z,0.50
2023-01-30T07:29:46.260Z,0.38
2023-01-30T07:32:18.487Z,0.50
2023-01-30T07:34:46.029Z,0.30
2023-01-30T07:37:12.930Z,0.57
2023-01-30T07:39:39.669Z,0.60
2023-01-30T07:42:06.429Z,0.50
2023-01-30T07:44:34.222Z,0.52
2023-01-30T07:47:01.239Z,0.73
2023-01-30T07:49:28.146Z,0.50
2023-01-30T07:51:54.950Z,0.47
2023-01-30T07:54:21.698Z,0.30
2023-01-30T07:56:48.333Z,0.43
2023-01-30T07:59:15.014Z,0.80
2023-01-30T08:01:41.724Z,0.55
2023-01-30T08:04:08.428Z,0.60
2023-01-30T08:06:39.088Z,0.80
2023-01-30T08:09:07.080Z,1.40
2023-01-30T08:11:34.561Z,1.10
2023-01-30T08:14:01.778Z,1.23
2023-01-30T08:16:28.774Z,1.00
2023-01-30T08:18:55.597Z,2.15
2023-01-30T08:21:22.371Z,1.90
2023-01-30T08:23:49.068Z,2.03
2023-01-30T08:26:15.823Z,1.90
2023-01-30T08:28:42.877Z,1.35
2023-01-30T08:31:14.365Z,2.03
2023-01-30T08:33:41.291Z,1.45
2023-01-30T08:36:08.600Z,1.52
2023-01-30T08:38:35.286Z,1.52
2023-01-30T08:41:04.908Z,1.08
2023-01-30T08:43:31.652Z,1.98
2023-01-30T08:45:58.611Z,1.63
2023-01-30T08:48:25.513Z,1.23
2023-01-30T08:50:56.156Z,1.45
2023-01-30T08:53:23.512Z,1.65
2023-01-30T08:55:51.952Z,2.47
2023-01-30T08:58:20.232Z,1.70
2023-01-30T09:00:48.530Z,1.83
2023-01-30T09:03:18.338Z,1.65
2023-01-30T09:05:45.301Z,1.70
2023-01-30T09:08:12.442Z,2.15
2023-01-30T09:10:39.163Z,1.38
2023-01-30T09:13:09.197Z,0.88
2023-01-30T09:15:36.140Z,0.40
2023-01-30T09:18:03.268Z,0.50
2023-01-30T09:20:30.086Z,0.63
2023-01-30T09:22:56.773Z,0.52
2023-01-30T09:25:23.673Z,1.35
2023-01-30T09:27:50.771Z,1.42
2023-01-30T09:30:18.168Z,2.05
2023-01-30T09:32:45.271Z,1.05
2023-01-30T09:35:12.468Z,0.75
2023-01-30T09:37:46.315Z,0.43
2023-01-30T09:40:17.523Z,0.47
2023-01-30T09:43:02.601Z,1.05
2023-01-30T09:45:37.708Z,0.50
2023-01-30T09:48:18.034Z,0.40
2023-01-30T09:51:11.890Z,0.20
2023-01-30T09:54:22.209Z,0.32
2023-01-30T09:57:20.420Z,0.25
2023-01-30T09:59:53.419Z,0.57
2023-01-30T10:02:45.167Z,0.40
2023-01-30T10:05:12.416Z,0.30
2023-01-30T10:07:51.647Z,0.40
2023-01-30T10:10:45.897Z,0.55
2023-01-30T10:13:34.418Z,0.65
2023-01-30T10:16:04.331Z,0.30
2023-01-30T10:19:18.157Z,0.30
2023-01-30T10:21:50.047Z,0.30
2023-01-30T10:24:38.177Z,0.38
2023-01-30T10:27:10.324Z,0.43
2023-01-30T10:29:39.785Z,0.32
2023-01-30T10:32:20.641Z,0.38
2023-01-30T10:34:53.895Z,0.50
2023-01-30T10:37:32.361Z,0.50
2023-01-30T10:40:18.821Z,0.45
2023-01-30T10:43:16.562Z,0.30
2023-01-30T10:46:15.698Z,0.43
2023-01-30T10:48:57.354Z,0.57
2023-01-30T10:51:48.345Z,0.43
2023-01-30T10:54:30.105Z,0.40
2023-01-30T10:57:17.228Z,1.17
2023-01-30T10:59:59.631Z,0.60
2023-01-30T11:03:04.137Z,0.22
2023-01-30T11:05:44.483Z,0.70
2023-01-30T11:08:19.803Z,0.40
2023-01-30T11:10:46.715Z,0.60
2023-01-30T11:13:17.964Z,0.95
2023-01-30T11:15:47.335Z,0.80
2023-01-30T11:18:50.950Z,0.90
2023-01-30T11:21:10.397Z,0.65
2023-01-30T11:23:42.774Z,1.00
2023-01-30T11:26:41.477Z,1.10
2023-01-30T11:29:24.210Z,0.90
2023-01-30T11:31:52.214Z,1.00
2023-01-30T11:34:21.958Z,0.90
2023-01-30T11:36:49.284Z,0.90
2023-01-30T11:39:20.441Z,1.27
2023-01-30T11:42:03.906Z,1.13
2023-01-30T11:44:36.046Z,1.10
2023-01-30T11:47:08.437Z,1.42
2023-01-30T11:50:01.508Z,1.65
2023-01-30T11:52:43.639Z,0.80
2023-01-30T11:55:14.895Z,0.88
2023-01-30T11:57:45.376Z,0.70
2023-01-30T12:00:22.401Z,0.50
2023-01-30T12:02:51.040Z,0.47
2023-01-30T12:05:55.513Z,0.55
2023-01-30T12:08:39.484Z,0.30
2023-01-30T12:11:25.151Z,0.40
2023-01-30T12:13:55.536Z,0.20
2023-01-30T12:16:48.859Z,0.20
2023-01-30T12:19:29.171Z,0.30
2023-01-30T12:22:18.979Z,0.50
2023-01-30T12:24:58.571Z,0.30
2023-01-30T12:27:48.510Z,0.55
2023-01-30T12:30:42.699Z,0.30
2023-01-30T12:33:14.430Z,0.57
2023-01-30T12:36:01.252Z,0.52
2023-01-30T12:38:47.923Z,0.85
2023-01-30T12:41:22.400Z,0.75
2023-01-30T12:44:07.579Z,0.57
2023-01-30T12:46:57.736Z,0.52
2023-01-30T12:50:21.231Z,0.47
2023-01-30T12:52:59.936Z,0.57
2023-01-30T12:56:00.898Z,0.47
2023-01-30T12:58:34.921Z,0.77
2023-01-30T13:01:27.916Z,0.50
2023-01-30T13:03:58.089Z,1.25
2023-01-30T13:07:07.598Z,0.52
2023-01-30T13:12:46.099Z,0.63
2023-01-30T13:15:19.760Z,0.82
2023-01-30T13:18:08.608Z,0.73
2023-01-30T13:20:47.639Z,0.45
2023-01-30T13:23:25.476Z,0.73
2023-01-30T13:26:12.778Z,0.38
2023-01-30T13:28:49.420Z,0.70
2023-01-30T13:31:21.508Z,0.57
2023-01-30T13:33:51.936Z,0.93
2023-01-30T13:36:22.751Z,0.63
2023-01-30T13:41:54.044Z,1.25
2023-01-30T13:44:24.863Z,0.70
2023-01-30T13:46:54.651Z,0.90
2023-01-30T13:49:26.683Z,0.63
2023-01-30T13:52:14.520Z,0.70
2023-01-30T13:55:14.139Z,0.77
2023-01-30T13:57:55.438Z,1.00
2023-01-30T14:00:36.219Z,0.60
2023-01-30T14:03:06.116Z,0.88
2023-01-30T14:05:51.432Z,0.63
2023-01-30T14:08:25.480Z,1.00
2023-01-30T14:10:52.924Z,1.10
2023-01-30T14:13:19.848Z,0.60
2023-01-30T14:15:57.652Z,0.98
2023-01-30T14:18:30.775Z,0.63
2023-01-30T14:21:24.481Z,1.15
2023-01-30T14:24:01.537Z,0.88
2023-01-30T14:26:51.840Z,0.50
2023-01-30T14:29:49.455Z,0.73
2023-01-30T14:32:17.475Z,0.77
2023-01-30T14:35:03.928Z,0.93
2023-01-30T14:37:39.493Z,0.73
2023-01-30T14:40:22.145Z,0.90
2023-01-30T14:43:17.844Z,0.90
2023-01-30T14:45:54.936Z,1.02
2023-01-30T14:48:57.889Z,0.85
2023-01-30T14:51:31.406Z,0.80
2023-01-30T14:54:12.088Z,0.95
2023-01-30T14:56:42.024Z,0.90
2023-01-30T14:59:17.768Z,1.33
2023-01-30T15:02:01.796Z,0.98
2023-01-30T15:04:45.639Z,1.02
2023-01-30T15:10:09.692Z,1.20
2023-01-30T15:13:09.621Z,1.25
2023-01-30T15:15:58.620Z,0.98
2023-01-30T15:18:48.932Z,1.05
2023-01-30T15:21:41.763Z,1.02
2023-01-30T15:24:39.497Z,1.30
2023-01-30T15:27:28.074Z,0.80
2023-01-30T15:30:16.996Z,1.30
2023-01-30T15:32:44.871Z,0.90
2023-01-30T15:35:11.666Z,2.17
2023-01-30T15:37:39.741Z,1.33
2023-01-30T15:40:16.382Z,1.75
2023-01-30T15:42:50.134Z,1.33
2023-01-30T15:45:34.760Z,1.15
2023-01-30T15:48:26.351Z,1.77
2023-01-30T15:50:56.755Z,1.13
2023-01-30T15:53:29.049Z,1.08
2023-01-30T15:55:56.515Z,1.83
2023-01-30T15:58:24.907Z,1.42
2023-01-30T16:01:01.064Z,1.20
2023-01-30T16:03:34.407Z,1.25
2023-01-30T16:06:01.227Z,2.17
2023-01-30T16:08:33.398Z,2.10
2023-01-30T16:11:00.842Z,1.67
2023-01-30T16:13:29.406Z,2.00
2023-01-30T16:16:10.434Z,1.88
2023-01-30T16:18:57.596Z,1.85
2023-01-30T16:21:28.693Z,2.05
2023-01-30T16:24:24.788Z,1.73
2023-01-30T16:26:55.265Z,2.45
2023-01-30T16:29:25.941Z,2.42
2023-01-30T16:31:54.548Z,1.98
2023-01-30T16:34:31.971Z,3.13
2023-01-30T16:37:03.713Z,2.30
2023-01-30T16:39:37.901Z,2.72
2023-01-30T16:42:27.989Z,3.60
2023-01-30T16:45:11.289Z,2.30
2023-01-30T16:47:38.977Z,1.73
2023-01-30T16:50:22.959Z,2.63
2023-01-30T16:52:55.080Z,2.20
2023-01-30T16:58:01.481Z,2.30
2023-01-30T17:00:38.154Z,1.80
2023-01-30T17:03:31.758Z,1.85
2023-01-30T17:05:59.767Z,2.55
2023-01-30T17:08:49.596Z,2.50
2023-01-30T17:11:36.025Z,1.92
2023-01-30T17:14:19.206Z,1.98
2023-01-30T17:17:08.475Z,1.83
2023-01-30T17:19:36.159Z,2.20
2023-01-30T17:22:07.324Z,2.13
2023-01-30T17:24:35.719Z,3.03
2023-01-30T17:27:04.766Z,2.70
2023-01-30T17:29:49.114Z,2.40
2023-01-30T17:32:16.281Z,2.22
2023-01-30T17:34:43.560Z,1.88
2023-01-30T17:37:20.197Z,1.83
2023-01-30T17:39:48.041Z,3.10
2023-01-30T17:42:18.736Z,1.85
2023-01-30T17:44:45.455Z,1.98
2023-01-30T17:47:12.602Z,2.08
2023-01-30T17:49:39.653Z,1.85
2023-01-30T17:52:07.124Z,1.52
2023-01-30T17:54:34.083Z,1.98
2023-01-30T17:57:06.631Z,1.58
2023-01-30T17:59:33.859Z,1.70
2023-01-30T18:02:03.380Z,2.10
2023-01-30T18:04:30.769Z,2.00
2023-01-30T18:07:04.296Z,1.98
2023-01-30T18:09:31.827Z,1.73
2023-01-30T18:11:58.622Z,1.95
2023-01-30T18:14:25.457Z,1.90
2023-01-30T18:16:52.257Z,1.98
2023-01-30T18:19:23.838Z,1.63
2023-01-30T18:21:50.713Z,1.40
2023-01-30T18:24:18.470Z,1.88
2023-01-30T18:26:46.784Z,1.42
2023-01-30T18:29:14.260Z,1.60
2023-01-30T18:31:41.494Z,1.50
2023-01-30T18:34:10.808Z,1.48
2023-01-30T18:36:38.500Z,0.88
2023-01-30T18:39:06.314Z,1.60
2023-01-30T18:41:35.270Z,1.45
2023-01-30T18:44:04.433Z,1.85
2023-01-30T18:46:31.482Z,1.38
2023-01-30T18:48:59.175Z,1.98
2023-01-30T18:51:32.405Z,1.52
2023-01-30T18:54:00.605Z,1.80
2023-01-30T18:56:33.166Z,1.75
2023-01-30T18:59:03.844Z,1.33
2023-01-30T19:01:38.983Z,2.90
2023-01-30T19:04:07.835Z,1.27
2023-01-30T19:06:39.171Z,1.98
2023-01-30T19:09:06.429Z,1.67
2023-01-30T19:11:52.287Z,2.45
2023-01-30T19:14:19.216Z,1.33
2023-01-30T19:16:46.190Z,1.73
2023-01-30T19:19:13.586Z,1.42
2023-01-30T19:21:40.666Z,1.08
2023-01-30T19:24:12.801Z,1.23
2023-01-30T19:26:39.859Z,2.10
2023-01-30T19:29:06.760Z,1.00
2023-01-30T19:31:33.807Z,1.80
2023-01-30T19:34:02.670Z,1.00
2023-01-30T19:36:31.845Z,1.13
2023-01-30T19:39:00.067Z,0.88
2023-01-30T19:41:30.743Z,1.25
2023-01-30T19:43:59.575Z,1.30
2023-01-30T19:46:28.747Z,1.48
2023-01-30T19:48:55.937Z,1.67
2023-01-30T19:51:25.651Z,2.00
2023-01-30T19:53:56.838Z,1.63
2023-01-30T19:56:25.351Z,1.27
2023-01-30T19:58:55.117Z,1.45
2023-01-30T20:01:23.620Z,1.73
2023-01-30T20:03:51.070Z,2.35
2023-01-30T20:06:29.637Z,1.20
2023-01-30T20:09:05.395Z,2.28
2023-01-30T20:11:35.095Z,1.83
2023-01-30T20:14:02.361Z,2.17
2023-01-30T20:16:31.351Z,1.50
2023-01-30T20:19:04.430Z,1.20
2023-01-30T20:21:31.235Z,1.85
2023-01-30T20:23:59.902Z,1.02
2023-01-30T20:26:29.770Z,1.10
2023-01-30T20:28:57.574Z,1.35
2023-01-30T20:31:26.978Z,1.80
2023-01-30T20:33:57.500Z,1.38
2023-01-30T20:36:27.052Z,1.77
2023-01-30T20:38:55.988Z,1.83
2023-01-30T20:41:25.589Z,1.38
2023-01-30T20:43:56.564Z,1.50
2023-01-30T20:46:29.028Z,1.48
2023-01-30T20:48:58.064Z,1.52
2023-01-30T20:51:28.617Z,1.50
2023-01-30T20:54:00.634Z,1.30
2023-01-30T20:58:57.755Z,1.25
2023-01-30T21:01:24.776Z,1.20
2023-01-30T21:03:53.455Z,1.48
2023-01-30T21:06:41.491Z,1.80
2023-01-30T21:09:18.392Z,1.90
2023-01-30T21:11:45.802Z,1.85
2023-01-30T21:14:13.352Z,1.58
2023-01-30T21:16:40.980Z,1.70
2023-01-30T21:19:13.894Z,1.67
2023-01-30T21:21:52.740Z,1.42
2023-01-30T21:24:25.801Z,1.88
2023-01-30T21:26:52.999Z,2.10
2023-01-30T21:29:22.325Z,1.40
2023-01-30T21:31:49.217Z,1.42
2023-01-30T21:34:16.085Z,1.35
2023-01-30T21:36:42.765Z,1.52
2023-01-30T21:39:32.262Z,1.42
2023-01-30T21:42:17.353Z,1.50
2023-01-30T21:44:44.063Z,1.77
2023-01-30T21:47:10.763Z,1.60
2023-01-30T21:49:37.771Z,1.38
2023-01-30T21:52:04.777Z,1.80
2023-01-30T21:54:31.631Z,1.40
2023-01-30T21:56:58.640Z,1.33
2023-01-30T21:59:25.327Z,1.83
2023-01-30T22:01:52.258Z,2.63
2023-01-30T22:04:19.513Z,2.25
2023-01-30T22:06:46.158Z,1.77
2023-01-30T22:09:14.840Z,1.73
2023-01-30T22:11:42.049Z,1.58
2023-01-30T22:14:09.202Z,1.60
2023-01-30T22:16:36.300Z,1.80
2023-01-30T22:19:04.856Z,2.17
2023-01-30T22:21:35.047Z,1.25
2023-01-30T22:24:02.803Z,1.40
2023-01-30T22:26:30.085Z,1.13
2023-01-30T22:28:58.143Z,2.00
2023-01-30T22:31:26.482Z,1.23
2023-01-30T22:33:55.230Z,1.70
2023-01-30T22:36:27.489Z,1.00
2023-01-30T22:38:55.048Z,1.80
2023-01-30T22:41:23.724Z,1.98
2023-01-30T22:43:55.406Z,1.88
2023-01-30T22:46:28.117Z,1.75
2023-01-30T22:48:55.149Z,1.75
2023-01-30T22:51:24.131Z,1.30
2023-01-30T22:53:53.982Z,1.13
2023-01-30T22:56:29.803Z,1.50
2023-01-30T22:58:57.288Z,1.40
2023-01-30T23:01:25.455Z,1.33
2023-01-30T23:03:56.367Z,1.42
2023-01-30T23:06:23.750Z,1.17
2023-01-30T23:08:51.329Z,1.52
2023-01-30T23:11:40.458Z,1.95
2023-01-30T23:14:13.605Z,1.63
2023-01-30T23:16:43.198Z,1.33
2023-01-30T23:19:12.267Z,1.25
2023-01-30T23:21:45.391Z,1.60
2023-01-30T23:24:13.470Z,1.27
2023-01-30T23:26:42.735Z,1.95
2023-01-30T23:29:13.099Z,1.25
2023-01-30T23:31:41.156Z,1.40
2023-01-30T23:34:12.625Z,1.42
2023-01-30T23:36:40.024Z,1.30
2023-01-30T23:39:07.067Z,1.70
2023-01-30T23:41:36.410Z,1.00
2023-01-30T23:44:03.841Z,1.42
2023-01-30T23:46:33.658Z,1.58
2023-01-30T23:49:04.010Z,0.77
2023-01-30T23:51:32.385Z,1.10
2023-01-30T23:53:59.767Z,1.10
2023-01-30T23:56:28.701Z,1.35
2023-01-30T23:58:56.031Z,1.20
